• Join FlightAware (Why Join?)
  • Login
  • US Flag 
01:26AM EDT


 

Airport Tracker/Info


-or-


 

Live Flight TrackerFlight Track Log ✈ SWA1733 ✈ 10-May-2013 ✈ KLAX - KRNO

Flight Track Log - Related Links

Times and Time Zones

All times are in EDT time to prevent confusion due to time zone crossing. See the SWA1733 flight status page for this flight to view local times or setup timezone preferences in your user account.

Time Position Orientation Groundspeed Altitude Reporting Facility
EDT Latitude Longitude Course Direction KTS MPH feet Rate Location/Type
12:57PM 33.9500 -118.5000 North 215 247 3,300  Level Southern California TRACON
12:58PM 33.9375 -118.6022 262° West 274 315 5,900 2,640 Climbing Los Angeles Center
12:59PM 33.9742 -118.6794 300° West 285 328 9,000 1,500 Climbing Los Angeles Center
01:00PM 34.0511 -118.7008 347° North 266 306 9,000  Level Los Angeles Center
01:02PM 34.1044 -118.6575 34° Northeast 260 299 9,000 960 Level Los Angeles Center
01:03PM 34.2835 -118.6000 North  Level FlightAware Approximate
01:03PM 34.1731 -118.6264 21° North 263 303 11,000  Level Los Angeles Center
01:04PM 34.2828 -118.6139 North 334 384 14,500 2,760 Climbing Los Angeles Center
01:05PM 34.3728 -118.6175 358° North 323 372 16,800 2,700 Climbing Los Angeles Center
01:06PM 34.4569 -118.6086 North 305 351 20,200 2,220 Climbing Los Angeles Center
01:07PM 34.5506 -118.6014 North 338 389 21,400 1,800 Climbing Los Angeles Center
01:08PM 34.6597 -118.6058 358° North 388 447 24,000 1,740 Climbing Los Angeles Center
01:09PM 34.7681 -118.6311 349° North 396 456 25,000 660 Climbing Los Angeles Center
01:10PM 34.9000 -118.6586 350° North 400 460 25,400 1,260 Climbing Los Angeles Center
01:11PM 35.0094 -118.6811 350° North 403 464 27,700 1,980 Climbing Los Angeles Center
01:12PM 35.1250 -118.7047 351° North 418 481 29,600 1,980 Climbing Los Angeles Center
01:13PM 35.2419 -118.7275 351° North 425 489 31,900 2,100 Climbing Los Angeles Center
01:14PM 35.3572 -118.7514 350° North 424 488 34,000 960 Climbing Los Angeles Center
01:15PM 35.4847 -118.7786 350° North 396 456 34,000  Level Los Angeles Center
01:16PM 35.5956 -118.8019 350° North 405 466 34,100 840 Climbing Los Angeles Center
01:17PM 35.7047 -118.8236 351° North 403 464 35,800 1,680 Climbing Los Angeles Center
01:18PM 35.8136 -118.8464 350° North 401 461 37,600 1,560 Climbing Los Angeles Center
01:19PM 35.9389 -118.8731 350° North 389 448 39,200 1,020 Climbing Oakland Center
01:20PM 36.0444 -118.8953 350° North 386 444 39,900 360 Climbing Oakland Center
01:21PM 36.1528 -118.9172 351° North 392 451 40,000  Climbing Oakland Center
01:22PM 36.2614 -118.9411 350° North 396 456 40,000  Level Oakland Center
01:23PM 36.3686 -118.9633 351° North 393 452 40,000  Level Oakland Center
01:24PM 36.4764 -118.9853 351° North 393 452 40,000 -660 Level Oakland Center
01:25PM 36.6047 -119.0119 351° North 390 449 38,700 -1,140 Descending Oakland Center
01:26PM 36.7114 -119.0347 350° North 389 448 37,700 -840 Descending Oakland Center
01:27PM 36.8161 -119.0578 350° North 385 443 37,000 -780 Descending Oakland Center
01:28PM 36.9200 -119.0797 350° North 381 438 36,200 -900 Descending Oakland Center
01:29PM 37.0242 -119.1031 350° North 391 450 35,200 -960 Descending Oakland Center
01:30PM 37.1292 -119.1272 350° North 388 447 34,300 -960 Descending Oakland Center
01:32PM 37.2375 -119.1503 350° North 394 453 33,300 -1,020 Descending Oakland Center
01:33PM 37.3428 -119.1731 350° North 387 445 32,300 -1,080 Descending Oakland Center
01:34PM 37.4658 -119.1986 351° North 375 432 31,100 -1,140 Descending Oakland Center
01:35PM 37.5689 -119.2242 349° North 382 440 30,100 -840 Descending Oakland Center
01:36PM 37.6719 -119.2392 353° North 370 426 29,400 -840 Descending Oakland Center
01:37PM 37.7792 -119.2628 350° North 388 447 28,500 -960 Descending Oakland Center
01:38PM 37.8825 -119.2878 349° North 381 438 27,500 -1,020 Descending Oakland Center
01:39PM 37.9881 -119.3106 350° North 383 441 26,500 -1,020 Descending Oakland Center
01:40PM 38.0956 -119.3336 350° North 389 448 25,500 -1,080 Descending Oakland Center
01:41PM 38.2142 -119.3583 351° North 385 443 24,400 -1,080 Descending Oakland Center
01:42PM 38.3158 -119.3808 350° North 375 432 23,300 -1,020 Descending Oakland Center
01:43PM 38.4161 -119.4039 350° North 367 422 22,300 -1,320 Descending Oakland Center
01:44PM 38.5164 -119.4261 350° North 365 420 20,700 -1,920 Descending Oakland Center
01:45PM 38.6150 -119.4481 350° North 360 414 18,500 -2,100 Descending Oakland Center
01:46PM 38.7122 -119.4703 350° North 355 409 16,400 -1,320 Descending Oakland Center
01:47PM 38.8072 -119.4914 350° North 349 402 15,900 -360 Descending Oakland Center
01:48PM 38.8986 -119.5133 349° North 338 389 15,700 -600 Descending Oakland Center
01:49PM 38.9897 -119.5308 352° North 332 382 14,700 -1,980 Descending Oakland Center
01:50PM 39.0975 -119.5350 358° North 325 374 11,700 -1,860 Descending Oakland Center
01:51PM 39.1867 -119.5589 348° North 324 373 11,000 -480 Descending Oakland Center
01:52PM 39.2717 -119.5831 348° North 316 364 10,800 -480 Descending Oakland Center
01:53PM 39.3575 -119.6069 348° North 315 362 10,100 -420 Descending Oakland Center
01:54PM 39.4447 -119.6325 347° North 316 364 10,000 -300 Descending Oakland Center
01:55PM 39.4833 -119.6500 341° North 287 330 9,700 -300 Descending Northern Cal TRACON
01:56PM 39.5500 -119.6667 349° North 238 274 9,600 -600 Descending Northern Cal TRACON
01:57PM 39.6167 -119.6667 360° North 184 212 8,500 -1,140 Descending Northern Cal TRACON
01:57PM 39.6294 -119.6858 311° West 217 250 7,800 -1,200 Descending Oakland Center
01:59PM 39.6000 -119.7667 245° Southwest 158 182 6,200 -1,020 Descending Northern Cal TRACON
02:00PM 39.5500 -119.7667 180° South 152 175 5,300 -840 Descending Northern Cal TRACON
02:02PM 39.4991 -119.7681 237° Southwest  Level Estimated
02:09PM 39.4991 -119.7681 237° Southwest  Level Estimated